Hornsby Bend, Texas
Current Conditions -  °F | °C
As of 11:53 AM on Tuesday 21 Oct 2014 (Local Time) from KAUS Reporting Station
Few Clouds Few Clouds  
Wind Chill: 76°   Ceiling: Unl
Heat Index: 76°   Visibility: 10mi
Dew Point: 59°   Wind: 9mph
Humidity: 56%   Direction: 50°NE
Pressure: 30.09"   Gusts: NA
Location:  30.2291°N, 97.5973°W
Report Text: KAUS 211653Z 05008KT 10SM FEW036 FEW200 24/15 A3009 RMK AO2 SLP182 T02440150
Loading
Personal Weather Stations






























Interactive Weather Map
Tropical Storm Tracking
New forecast layout! Learn more

10-Day Weather Forecast

Advertisements
Track Severe Weather on mobile